Strona główna
METAR-TAF:

METAR-TAF

Lotnisko :

Wapakoneta, Ohio, Stany Zjednoczone

Szerokość geograficzna: 40-29-37N, Długość geograficzna: 084-17-53W, wysokość: 278 m

Aktualna obserwacja pogody

Raport powstał 11 minut temu, godzina 13:15 UTC
Wiatr 10 kt od południowy zachód w porywach dochodzący do 15 kt
Temperatura 16°C
Wilgotność 100%
Ciśnienie 1020 hPa
Widzialność: 11.3 km
Zachmurzenie całkowite na wysokości 1100 ft
słaby deszcz

METAR: KAXV 211315Z AUTO 22010G15KT 7SM -RA OVC011 16/16 A3011 RMK AO2

czas: 09:26 (13:26 UTC)


TAF: brakujący

Obserwacja i prognoza pogody dla ponad 4000 lotnisk (raport METAR i TAF).

Dostępne stacje oznaczono żółtymi i czerwonymi punktami na mapie.

Najedź kursorem aby zobaczyć nazwę stacji.

Kliknij aby zobaczyć obserwacje i prognozy pogody.

Aby zmienić mapę: kliknij na zielony przycisk z czarnym krzyżykiem, aby powiększyć; na zielony przycisk z myślnikiem, aby pomniejszyć; na zielone strzałki, aby przejść do map sąsiednich.


METAR-TAF: